Time;durP1;ratioP1;P1;durP2;ratioP2;P2;SDS_P1;SDS_P2;PMS_P1;PMS_P2;Temp;Humidity;BMP_temperature;BMP_pressure;BME280_temperature;BME280_humidity;BME280_pressure;Samples;Min_cycle;Max_cycle;Signal;HPM_P1;HPM_P2
2024/01/25 00:00:46;;;;;;;4.75;1.10;;;6.40;91.20;;;;;;4998143;28;20033;-70
2024/01/25 00:03:12;;;;;;;2.92;1.38;;;6.40;91.50;;;;;;5000493;28;20391;-71
2024/01/25 00:05:37;;;;;;;10.88;1.48;;;6.40;91.20;;;;;;5000854;28;20037;-71
2024/01/25 00:08:03;;;;;;;3.03;1.83;;;6.40;91.50;;;;;;4992632;28;20406;-70
2024/01/25 00:10:29;;;;;;;3.92;1.60;;;6.30;91.60;;;;;;5001245;28;20034;-70
2024/01/25 00:12:54;;;;;;;7.68;1.77;;;6.30;91.70;;;;;;4996254;28;20068;-70
2024/01/25 00:15:20;;;;;;;4.60;1.88;;;6.30;91.90;;;;;;5005513;28;20044;-70
2024/01/25 00:17:45;;;;;;;8.20;2.25;;;6.30;92.10;;;;;;4995013;28;20048;-70
2024/01/25 00:20:11;;;;;;;7.07;1.52;;;6.30;92.00;;;;;;5002362;28;20030;-70
2024/01/25 00:22:38;;;;;;;4.05;1.77;;;6.30;92.00;;;;;;4995111;28;20038;-70
2024/01/25 00:25:03;;;;;;;10.23;2.38;;;6.30;91.90;;;;;;4997290;28;20403;-70
2024/01/25 00:27:29;;;;;;;3.95;1.48;;;6.30;91.70;;;;;;5002931;28;20056;-70
2024/01/25 00:29:54;;;;;;;10.82;2.30;;;6.30;91.90;;;;;;4998804;28;20510;-70
2024/01/25 00:32:20;;;;;;;3.97;1.00;;;6.30;91.90;;;;;;4997631;28;20034;-70
2024/01/25 00:34:46;;;;;;;9.75;2.15;;;6.30;91.90;;;;;;5001146;28;20039;-71
2024/01/25 00:37:11;;;;;;;7.28;2.50;;;6.30;92.00;;;;;;4999281;28;20065;-70
2024/01/25 00:39:37;;;;;;;10.85;1.88;;;6.30;92.00;;;;;;4996456;28;20483;-71
2024/01/25 00:42:06;;;;;;;10.70;1.90;;;6.30;92.00;;;;;;5001495;28;20186;-70
2024/01/25 00:44:32;;;;;;;6.85;1.60;;;6.30;92.00;;;;;;4994417;28;20112;-72
2024/01/25 00:46:58;;;;;;;6.38;1.98;;;6.40;91.90;;;;;;4999841;28;20109;-71
2024/01/25 00:49:24;;;;;;;9.93;1.77;;;6.40;92.00;;;;;;5002206;28;20194;-71
2024/01/25 00:51:54;;;;;;;7.65;1.80;;;6.40;91.70;;;;;;5013588;28;20034;-71
2024/01/25 00:54:20;;;;;;;6.25;2.13;;;6.40;91.90;;;;;;5002830;28;20040;-71
2024/01/25 00:56:48;;;;;;;7.80;1.85;;;6.40;92.00;;;;;;4999715;28;20042;-73
2024/01/25 00:59:13;;;;;;;8.48;1.60;;;6.30;92.00;;;;;;5024006;28;20207;-70
2024/01/25 01:01:42;;;;;;;5.30;1.60;;;6.40;91.80;;;;;;4986679;28;20543;-70
2024/01/25 01:04:08;;;;;;;5.43;1.10;;;6.40;92.10;;;;;;5000039;28;20053;-72
2024/01/25 01:06:33;;;;;;;5.82;1.25;;;6.40;91.90;;;;;;5005402;28;20037;-70
2024/01/25 01:08:59;;;;;;;12.43;2.25;;;6.40;91.80;;;;;;5002367;28;20029;-71
2024/01/25 01:11:24;;;;;;;8.27;1.95;;;6.50;91.70;;;;;;4993049;28;20118;-71
2024/01/25 01:13:50;;;;;;;11.38;1.63;;;6.50;91.50;;;;;;4997518;28;20042;-71
2024/01/25 01:16:16;;;;;;;6.53;1.60;;;6.50;91.70;;;;;;4995546;28;20046;-71
2024/01/25 01:18:41;;;;;;;3.38;1.58;;;6.50;91.80;;;;;;5007445;28;20406;-71
2024/01/25 01:21:06;;;;;;;5.88;1.55;;;6.50;91.50;;;;;;4998613;28;20042;-74
2024/01/25 01:23:32;;;;;;;5.75;1.40;;;6.60;91.50;;;;;;5006967;28;20485;-71
2024/01/25 01:25:57;;;;;;;5.20;1.70;;;6.50;91.60;;;;;;4997065;28;20041;-70
2024/01/25 01:28:23;;;;;;;6.32;1.95;;;6.40;91.80;;;;;;5001304;28;20475;-70
2024/01/25 01:30:48;;;;;;;8.02;1.15;;;6.50;91.60;;;;;;5007744;28;20033;-71
2024/01/25 01:33:14;;;;;;;15.57;1.92;;;6.50;91.60;;;;;;4999788;28;20102;-71
2024/01/25 01:35:39;;;;;;;4.43;1.30;;;6.40;91.70;;;;;;5004772;28;20136;-72
2024/01/25 01:38:05;;;;;;;7.43;2.40;;;6.50;91.40;;;;;;5002287;28;20038;-71
2024/01/25 01:40:30;;;;;;;6.13;1.75;;;6.40;91.50;;;;;;5021040;28;20038;-71
2024/01/25 01:43:02;;;;;;;6.80;1.73;;;6.40;91.70;;;;;;5003817;28;20469;-70
2024/01/25 01:45:28;;;;;;;6.15;1.25;;;6.40;91.50;;;;;;4995674;28;20038;-72
2024/01/25 01:47:58;;;;;;;4.40;1.77;;;6.40;91.60;;;;;;4994106;28;20034;-71
2024/01/25 01:50:24;;;;;;;5.40;1.48;;;6.40;91.80;;;;;;4999468;28;20022;-71
2024/01/25 01:52:50;;;;;;;6.93;1.25;;;6.40;91.70;;;;;;5001963;28;20045;-71
2024/01/25 01:55:17;;;;;;;6.20;1.17;;;6.50;91.30;;;;;;5000265;28;20049;-71
2024/01/25 01:57:43;;;;;;;5.60;1.23;;;6.40;91.80;;;;;;5001213;28;20123;-71
2024/01/25 02:00:10;;;;;;;11.02;2.53;;;6.40;91.90;;;;;;5002356;28;20062;-70
2024/01/25 02:02:35;;;;;;;7.20;1.52;;;6.40;92.00;;;;;;4998578;28;20440;-71
2024/01/25 02:05:01;;;;;;;10.50;1.85;;;6.40;92.20;;;;;;5004894;28;20100;-70
2024/01/25 02:07:28;;;;;;;5.03;1.48;;;6.40;92.10;;;;;;4997117;28;20041;-71
2024/01/25 02:09:53;;;;;;;5.20;1.30;;;6.30;92.10;;;;;;5001609;28;20417;-71
2024/01/25 02:12:19;;;;;;;8.38;1.45;;;6.40;92.10;;;;;;4995697;28;20030;-70
2024/01/25 02:14:45;;;;;;;7.40;1.88;;;6.40;92.20;;;;;;5002966;28;20112;-71
2024/01/25 02:17:10;;;;;;;6.30;1.98;;;6.30;92.30;;;;;;5000756;28;20030;-70
2024/01/25 02:19:36;;;;;;;4.32;1.80;;;6.40;92.10;;;;;;5002866;28;20478;-70
2024/01/25 02:22:05;;;;;;;3.58;0.70;;;6.40;92.20;;;;;;5014511;28;20037;-72
2024/01/25 02:24:30;;;;;;;7.55;1.73;;;6.40;92.20;;;;;;5000046;28;20336;-71
2024/01/25 02:26:56;;;;;;;8.70;2.63;;;6.40;92.20;;;;;;5001163;28;20117;-71
2024/01/25 02:29:22;;;;;;;3.33;1.35;;;6.50;92.00;;;;;;4999232;28;20140;-70
2024/01/25 02:31:47;;;;;;;5.15;1.20;;;6.40;92.20;;;;;;5017810;28;20044;-71
2024/01/25 02:34:13;;;;;;;4.45;1.30;;;6.40;92.20;;;;;;5000514;28;20646;-70
2024/01/25 02:36:38;;;;;;;1.45;0.90;;;6.40;92.40;;;;;;4997298;28;20050;-71
2024/01/25 02:39:07;;;;;;;7.53;2.67;;;6.40;92.30;;;;;;4998738;28;20108;-72
2024/01/25 02:41:32;;;;;;;5.38;1.80;;;6.40;92.60;;;;;;5003100;28;20026;-71
2024/01/25 02:43:59;;;;;;;4.93;1.52;;;6.40;92.50;;;;;;5004863;28;20030;-71
2024/01/25 02:46:25;;;;;;;8.55;1.88;;;6.40;92.70;;;;;;5000594;28;20095;-72
2024/01/25 02:48:50;;;;;;;12.40;2.72;;;6.40;92.70;;;;;;5011503;28;20097;-70
2024/01/25 02:51:16;;;;;;;6.50;1.88;;;6.40;92.70;;;;;;4994993;28;20034;-70
2024/01/25 02:53:41;;;;;;;8.85;1.52;;;6.30;92.70;;;;;;4997984;28;20045;-71
2024/01/25 02:56:07;;;;;;;9.07;1.77;;;6.40;92.70;;;;;;5000888;28;20031;-71
2024/01/25 02:58:33;;;;;;;5.82;1.92;;;6.40;92.70;;;;;;5003524;28;20348;-71
2024/01/25 03:00:58;;;;;;;5.50;1.35;;;6.40;92.40;;;;;;4996407;28;20498;-72
2024/01/25 03:03:24;;;;;;;8.45;2.33;;;6.40;92.60;;;;;;5002121;28;20073;-70
2024/01/25 03:05:51;;;;;;;8.10;1.92;;;6.40;92.50;;;;;;5005321;28;20052;-70
2024/01/25 03:08:17;;;;;;;7.45;1.80;;;6.40;92.60;;;;;;5005017;28;20034;-70
2024/01/25 03:10:42;;;;;;;5.85;1.75;;;6.40;92.80;;;;;;5007788;28;20033;-71
2024/01/25 03:13:08;;;;;;;5.55;1.73;;;6.40;93.00;;;;;;4993897;28;20529;-71
2024/01/25 03:15:33;;;;;;;4.40;1.77;;;6.40;92.90;;;;;;4999810;28;20030;-71
2024/01/25 03:17:59;;;;;;;5.72;1.33;;;6.40;92.60;;;;;;5003529;28;20212;-71
2024/01/25 03:20:24;;;;;;;6.05;2.45;;;6.40;92.70;;;;;;5003692;28;20332;-72
2024/01/25 03:22:50;;;;;;;6.90;2.00;;;6.40;92.70;;;;;;5000137;28;20037;-70
2024/01/25 03:25:15;;;;;;;4.82;0.98;;;6.40;92.70;;;;;;5004341;28;20320;-69
2024/01/25 03:27:41;;;;;;;2.63;1.10;;;6.40;92.80;;;;;;5002046;28;20073;-69
2024/01/25 03:30:07;;;;;;;2.85;0.80;;;6.40;92.80;;;;;;5002231;28;20053;-70
2024/01/25 03:32:33;;;;;;;6.13;1.30;;;6.40;92.80;;;;;;4991027;28;20045;-70
2024/01/25 03:34:59;;;;;;;4.13;1.42;;;6.40;92.70;;;;;;5004939;28;20052;-70
2024/01/25 03:37:25;;;;;;;11.10;2.25;;;6.40;92.80;;;;;;4998536;28;20049;-69
2024/01/25 03:39:51;;;;;;;3.13;1.25;;;6.40;92.90;;;;;;5006165;28;20393;-69
2024/01/25 03:42:16;;;;;;;5.45;2.00;;;6.30;93.00;;;;;;5000902;28;20082;-69
2024/01/25 03:44:42;;;;;;;3.40;1.05;;;6.30;93.10;;;;;;5003618;28;20045;-69
2024/01/25 03:47:08;;;;;;;7.43;1.95;;;6.30;93.20;;;;;;5004414;28;20368;-69
2024/01/25 03:49:34;;;;;;;4.93;1.75;;;6.30;93.40;;;;;;5003528;28;20102;-69
2024/01/25 03:51:59;;;;;;;4.53;0.95;;;6.30;93.20;;;;;;4992186;28;20030;-69
2024/01/25 03:54:25;;;;;;;7.10;2.33;;;6.30;93.30;;;;;;5006051;28;20060;-73
2024/01/25 03:56:50;;;;;;;8.15;1.88;;;6.30;93.40;;;;;;5000381;28;20478;-70
2024/01/25 03:59:16;;;;;;;7.85;1.65;;;6.30;93.30;;;;;;4997489;28;20026;-69
2024/01/25 04:01:46;;;;;;;5.30;1.17;;;6.30;93.40;;;;;;4995879;28;20062;-70
2024/01/25 04:04:13;;;;;;;2.97;1.02;;;6.30;93.30;;;;;;4989885;28;20121;-69
2024/01/25 04:06:42;;;;;;;4.68;1.63;;;6.30;93.40;;;;;;5000942;28;20042;-69
2024/01/25 04:09:08;;;;;;;3.10;1.20;;;6.30;93.40;;;;;;5001526;28;20034;-70
2024/01/25 04:11:33;;;;;;;7.32;1.30;;;6.20;93.60;;;;;;4996387;28;20069;-71
2024/01/25 04:13:59;;;;;;;6.00;1.60;;;6.20;93.60;;;;;;4996939;28;20171;-70
2024/01/25 04:16:25;;;;;;;7.78;1.27;;;6.20;93.70;;;;;;4995042;28;20132;-69
2024/01/25 04:18:51;;;;;;;7.25;1.60;;;6.20;93.70;;;;;;4995967;28;20068;-69
2024/01/25 04:21:16;;;;;;;6.78;1.65;;;6.20;93.80;;;;;;5005141;28;20067;-70
2024/01/25 04:23:42;;;;;;;14.70;1.48;;;6.10;93.80;;;;;;5003935;28;20072;-68
2024/01/25 04:26:07;;;;;;;8.80;1.63;;;6.20;93.60;;;;;;4996394;28;20075;-70
2024/01/25 04:28:33;;;;;;;7.85;1.75;;;6.30;93.60;;;;;;5006181;28;20159;-69
2024/01/25 04:30:58;;;;;;;4.80;1.17;;;6.20;93.60;;;;;;5001496;28;20378;-70
2024/01/25 04:33:24;;;;;;;3.85;1.38;;;6.30;93.70;;;;;;5000496;28;20037;-70
2024/01/25 04:35:49;;;;;;;8.00;1.63;;;6.20;93.80;;;;;;5001143;28;20026;-70
2024/01/25 04:38:15;;;;;;;5.53;1.50;;;6.20;93.90;;;;;;5006226;28;20392;-70
2024/01/25 04:40:40;;;;;;;4.32;1.13;;;6.10;93.90;;;;;;5003556;28;20018;-69
2024/01/25 04:43:06;;;;;;;3.90;1.35;;;6.20;94.00;;;;;;5000538;28;20057;-70
2024/01/25 04:45:31;;;;;;;6.60;1.45;;;6.10;93.80;;;;;;4993435;28;20125;-70
2024/01/25 04:47:57;;;;;;;6.78;1.98;;;6.20;93.90;;;;;;5001921;28;20053;-70
2024/01/25 04:50:22;;;;;;;8.20;1.55;;;6.10;94.00;;;;;;4995808;28;20068;-70
2024/01/25 04:52:47;;;;;;;7.00;1.70;;;6.10;94.00;;;;;;5001975;28;20037;-70
2024/01/25 04:55:13;;;;;;;8.07;1.52;;;6.20;93.80;;;;;;5005350;28;20086;-70
2024/01/25 04:57:38;;;;;;;6.38;1.73;;;6.20;94.00;;;;;;5001540;28;20352;-69
2024/01/25 05:00:04;;;;;;;6.30;1.35;;;6.20;94.00;;;;;;4999758;28;20045;-70
2024/01/25 05:02:30;;;;;;;4.72;2.08;;;6.20;93.80;;;;;;4996381;28;20092;-70
2024/01/25 05:04:55;;;;;;;3.55;1.20;;;6.20;93.80;;;;;;4997774;28;20041;-69
2024/01/25 05:07:22;;;;;;;7.90;1.75;;;6.20;93.80;;;;;;4996684;28;20120;-69
2024/01/25 05:09:47;;;;;;;7.60;1.80;;;6.20;93.70;;;;;;5001308;28;20121;-70
2024/01/25 05:12:12;;;;;;;7.53;1.27;;;6.20;93.70;;;;;;4999591;28;20170;-69
2024/01/25 05:14:38;;;;;;;4.13;0.82;;;6.20;93.90;;;;;;5030547;28;20062;-69
2024/01/25 05:17:03;;;;;;;11.13;1.85;;;6.10;93.90;;;;;;5002423;28;20490;-69
2024/01/25 05:19:29;;;;;;;3.05;0.80;;;6.20;93.90;;;;;;4992799;28;20114;-70
2024/01/25 05:21:55;;;;;;;4.45;1.38;;;6.10;94.00;;;;;;4996533;28;20038;-69
2024/01/25 05:24:20;;;;;;;10.90;1.77;;;6.20;94.00;;;;;;4996191;28;20033;-68
2024/01/25 05:26:46;;;;;;;8.48;1.10;;;6.10;94.10;;;;;;4994038;28;20101;-68
2024/01/25 05:29:11;;;;;;;10.20;2.35;;;6.10;94.00;;;;;;4998156;28;20041;-68
2024/01/25 05:31:37;;;;;;;5.53;1.52;;;6.10;94.10;;;;;;5000880;28;20109;-69
2024/01/25 05:34:02;;;;;;;3.72;1.85;;;6.10;93.80;;;;;;5003912;28;20034;-70
2024/01/25 05:36:28;;;;;;;7.10;1.70;;;6.10;94.00;;;;;;4989101;28;20176;-70
2024/01/25 05:38:53;;;;;;;6.45;1.42;;;6.20;93.90;;;;;;5004883;28;20077;-71
2024/01/25 05:41:19;;;;;;;9.30;2.10;;;6.10;94.00;;;;;;5004127;28;20057;-68
2024/01/25 05:43:44;;;;;;;6.55;1.48;;;6.10;93.90;;;;;;5001828;28;20057;-69
2024/01/25 05:46:10;;;;;;;11.63;1.42;;;6.10;94.10;;;;;;4994335;28;20034;-69
2024/01/25 05:48:35;;;;;;;3.08;0.98;;;6.10;93.70;;;;;;4994737;28;20046;-69
2024/01/25 05:51:01;;;;;;;4.10;1.38;;;6.10;93.80;;;;;;5002521;28;20045;-69
2024/01/25 05:53:26;;;;;;;4.10;1.40;;;6.10;94.00;;;;;;5001797;28;20092;-69
2024/01/25 05:55:52;;;;;;;4.55;1.30;;;6.10;94.00;;;;;;5001581;28;20099;-69
2024/01/25 05:58:17;;;;;;;9.68;1.95;;;6.10;94.00;;;;;;5004002;28;20260;-70
2024/01/25 06:00:43;;;;;;;2.85;1.13;;;6.10;94.20;;;;;;4995941;28;20038;-69
2024/01/25 06:03:08;;;;;;;9.32;1.92;;;6.10;94.10;;;;;;5005446;28;20042;-69
2024/01/25 06:05:34;;;;;;;7.00;1.25;;;6.10;94.30;;;;;;4996366;28;20105;-69
2024/01/25 06:07:59;;;;;;;2.42;0.65;;;6.10;94.20;;;;;;5000834;28;20093;-70
2024/01/25 06:10:25;;;;;;;3.10;0.82;;;6.10;94.20;;;;;;5003485;28;20025;-68
2024/01/25 06:12:50;;;;;;;6.43;1.08;;;6.10;94.20;;;;;;5000679;28;20038;-71
2024/01/25 06:15:16;;;;;;;6.47;1.50;;;6.00;94.20;;;;;;4995923;28;20139;-69
2024/01/25 06:17:41;;;;;;;4.32;0.90;;;6.00;94.20;;;;;;5000486;28;20048;-71
2024/01/25 06:20:07;;;;;;;6.53;1.73;;;6.10;94.10;;;;;;5002833;28;20406;-70
2024/01/25 06:22:33;;;;;;;6.13;1.83;;;6.00;94.20;;;;;;5012143;28;20030;-72
2024/01/25 06:24:58;;;;;;;4.32;0.85;;;6.00;94.30;;;;;;4996775;28;20127;-73
2024/01/25 06:27:23;;;;;;;3.50;1.33;;;6.00;94.40;;;;;;4998216;28;20050;-72
2024/01/25 06:29:49;;;;;;;1.15;0.65;;;6.00;94.40;;;;;;5001111;28;20070;-75
2024/01/25 06:32:14;;;;;;;7.60;1.10;;;6.00;94.30;;;;;;5001127;28;20030;-72
2024/01/25 06:34:40;;;;;;;5.63;1.65;;;6.10;94.40;;;;;;4994799;28;20206;-75
2024/01/25 06:37:05;;;;;;;4.60;1.15;;;6.10;94.50;;;;;;5004429;28;20092;-72
2024/01/25 06:39:32;;;;;;;4.20;1.02;;;6.00;94.50;;;;;;5003895;28;20377;-73
2024/01/25 06:41:57;;;;;;;7.25;1.52;;;6.00;94.50;;;;;;5001690;28;20037;-71
2024/01/25 06:44:23;;;;;;;9.60;1.35;;;6.00;94.60;;;;;;5004286;28;20374;-70
2024/01/25 06:46:48;;;;;;;4.22;1.13;;;6.10;94.60;;;;;;4999786;28;20050;-71
2024/01/25 06:49:13;;;;;;;2.50;0.77;;;6.10;94.60;;;;;;4999281;28;20042;-70
2024/01/25 06:51:39;;;;;;;3.75;1.17;;;6.00;94.60;;;;;;5001218;28;20033;-73
2024/01/25 06:54:04;;;;;;;6.00;1.33;;;6.10;94.60;;;;;;5000486;28;20046;-71
2024/01/25 06:56:31;;;;;;;4.28;1.40;;;6.00;94.60;;;;;;4996925;28;20388;-70
2024/01/25 06:58:56;;;;;;;6.55;1.30;;;6.10;94.50;;;;;;5004582;28;20517;-70
2024/01/25 07:01:23;;;;;;;3.13;1.10;;;6.10;94.50;;;;;;4996911;28;20080;-71
2024/01/25 07:03:50;;;;;;;7.10;1.85;;;6.10;94.50;;;;;;4999337;28;20095;-74
2024/01/25 07:06:17;;;;;;;7.68;1.45;;;6.10;94.70;;;;;;4997600;28;20030;-70
2024/01/25 07:08:42;;;;;;;4.20;2.08;;;6.10;94.60;;;;;;4999447;28;20394;-68
2024/01/25 07:11:08;;;;;;;7.93;1.65;;;6.10;94.60;;;;;;5001838;28;20075;-69
2024/01/25 07:13:33;;;;;;;5.13;1.00;;;6.10;94.70;;;;;;5002455;28;20496;-69
2024/01/25 07:15:59;;;;;;;6.40;1.52;;;6.10;94.60;;;;;;5000816;28;20106;-69
2024/01/25 07:18:24;;;;;;;6.80;1.33;;;6.10;94.60;;;;;;5004373;28;20497;-68
2024/01/25 07:20:50;;;;;;;3.55;1.15;;;6.00;94.80;;;;;;5005778;28;20104;-68
2024/01/25 07:23:16;;;;;;;5.57;1.98;;;6.10;94.90;;;;;;5003037;28;20034;-69
2024/01/25 07:25:41;;;;;;;8.13;1.85;;;6.10;94.80;;;;;;4998031;28;20516;-68
2024/01/25 07:28:07;;;;;;;3.70;1.83;;;6.10;94.80;;;;;;5003657;28;20124;-69
2024/01/25 07:30:32;;;;;;;7.43;1.42;;;6.10;94.90;;;;;;5013251;28;20093;-69
2024/01/25 07:32:58;;;;;;;4.43;1.17;;;6.00;95.00;;;;;;4996647;28;20462;-71
2024/01/25 07:35:24;;;;;;;4.25;1.20;;;6.00;95.00;;;;;;5000111;28;20030;-68
2024/01/25 07:37:49;;;;;;;6.20;2.25;;;6.00;94.90;;;;;;4996614;28;20037;-69
2024/01/25 07:40:15;;;;;;;8.90;1.23;;;6.00;94.90;;;;;;4997696;28;20532;-69
2024/01/25 07:42:40;;;;;;;3.47;0.90;;;6.00;94.80;;;;;;5008421;28;20041;-69
2024/01/25 07:45:07;;;;;;;6.20;1.45;;;6.00;94.80;;;;;;5005640;28;20485;-69
2024/01/25 07:47:33;;;;;;;8.02;1.40;;;6.10;94.70;;;;;;5002752;28;20073;-69
2024/01/25 07:49:58;;;;;;;4.30;1.17;;;6.00;94.80;;;;;;5005675;28;20491;-70
2024/01/25 07:52:24;;;;;;;3.83;1.30;;;6.10;94.70;;;;;;4993814;28;20116;-70
2024/01/25 07:54:49;;;;;;;5.63;1.58;;;6.10;94.70;;;;;;5002955;28;20109;-69
2024/01/25 07:57:15;;;;;;;5.68;1.50;;;6.10;94.70;;;;;;4996639;28;20556;-68
2024/01/25 07:59:41;;;;;;;4.03;1.48;;;6.10;94.80;;;;;;4993464;28;20056;-69
2024/01/25 08:02:06;;;;;;;4.05;1.85;;;6.10;94.70;;;;;;5007336;28;20072;-68
2024/01/25 08:04:32;;;;;;;5.38;1.50;;;6.10;94.80;;;;;;5006549;28;20030;-69
2024/01/25 08:06:58;;;;;;;7.78;1.67;;;6.00;94.90;;;;;;5006555;28;20489;-69
2024/01/25 08:09:23;;;;;;;8.85;1.42;;;6.00;95.00;;;;;;5014204;28;20056;-68
2024/01/25 08:11:49;;;;;;;7.97;2.22;;;6.00;95.00;;;;;;4998896;28;20030;-69
2024/01/25 08:14:14;;;;;;;2.13;1.15;;;6.10;95.00;;;;;;5003224;28;20136;-70
2024/01/25 08:16:41;;;;;;;4.20;0.90;;;6.10;95.00;;;;;;4994554;28;20032;-71
2024/01/25 08:19:06;;;;;;;5.82;1.92;;;6.10;94.90;;;;;;5003801;28;20048;-69
2024/01/25 08:21:32;;;;;;;3.28;1.25;;;6.10;94.90;;;;;;5004008;28;20417;-70
2024/01/25 08:23:57;;;;;;;3.85;1.05;;;6.10;94.90;;;;;;5000548;28;20087;-69
2024/01/25 08:26:22;;;;;;;7.05;1.88;;;6.10;95.00;;;;;;5001552;28;20065;-70
2024/01/25 08:28:48;;;;;;;3.45;1.13;;;6.10;94.80;;;;;;4998959;28;20060;-68
2024/01/25 08:31:14;;;;;;;2.78;1.05;;;6.10;94.80;;;;;;4995774;28;20029;-69
2024/01/25 08:33:45;;;;;;;5.47;2.08;;;6.10;94.80;;;;;;5000711;28;20046;-68
2024/01/25 08:36:10;;;;;;;4.90;1.05;;;6.10;94.70;;;;;;5005665;28;20390;-69
2024/01/25 08:38:36;;;;;;;2.78;1.10;;;6.10;94.70;;;;;;5011644;28;20030;-69
2024/01/25 08:41:02;;;;;;;3.38;1.48;;;6.10;94.70;;;;;;4998592;28;20471;-69
2024/01/25 08:43:27;;;;;;;4.25;1.30;;;6.10;94.80;;;;;;4997376;28;20045;-69
2024/01/25 08:45:53;;;;;;;3.20;1.27;;;6.10;94.70;;;;;;5000203;28;20034;-70
2024/01/25 08:48:19;;;;;;;7.30;1.33;;;6.10;94.60;;;;;;5003139;28;20100;-68
2024/01/25 08:50:44;;;;;;;5.88;1.63;;;6.10;94.60;;;;;;4991042;28;20057;-69
2024/01/25 08:53:10;;;;;;;4.00;1.67;;;6.20;94.60;;;;;;4997384;28;20350;-69
2024/01/25 08:55:35;;;;;;;2.92;0.77;;;6.20;94.50;;;;;;4995124;28;20097;-68
2024/01/25 08:58:01;;;;;;;6.20;2.15;;;6.20;94.50;;;;;;5001119;28;20392;-69
2024/01/25 09:00:26;;;;;;;5.35;1.17;;;6.20;94.50;;;;;;4987266;28;20074;-69
2024/01/25 09:02:53;;;;;;;6.10;1.25;;;6.30;94.50;;;;;;4989511;28;20391;-69
2024/01/25 09:05:18;;;;;;;2.53;1.20;;;6.20;94.20;;;;;;4990883;28;20041;-70
2024/01/25 09:07:44;;;;;;;3.55;1.70;;;6.20;94.20;;;;;;4995735;28;20048;-70
2024/01/25 09:10:09;;;;;;;4.90;1.08;;;6.20;94.10;;;;;;5000117;28;20459;-69
2024/01/25 09:12:35;;;;;;;8.05;1.73;;;6.30;94.00;;;;;;4996002;28;20133;-70
2024/01/25 09:15:01;;;;;;;4.05;1.23;;;6.20;94.10;;;;;;4996601;28;20038;-70
2024/01/25 09:17:27;;;;;;;3.08;1.45;;;6.20;94.10;;;;;;5000211;28;20038;-69
2024/01/25 09:19:53;;;;;;;3.15;1.60;;;6.30;94.10;;;;;;5002821;28;20070;-69
2024/01/25 09:22:19;;;;;;;4.85;1.70;;;6.30;94.20;;;;;;5004211;28;20126;-69
2024/01/25 09:24:46;;;;;;;4.13;1.98;;;6.30;94.10;;;;;;5003846;28;20076;-69
2024/01/25 09:27:12;;;;;;;6.88;1.88;;;6.30;94.10;;;;;;5004257;28;20455;-68
2024/01/25 09:29:38;;;;;;;6.40;1.42;;;6.30;94.10;;;;;;4998473;28;20129;-69
2024/01/25 09:32:05;;;;;;;4.95;1.00;;;6.20;94.10;;;;;;4999030;28;20117;-70
2024/01/25 09:34:31;;;;;;;4.70;1.20;;;6.20;94.30;;;;;;4995238;28;20037;-69
2024/01/25 09:36:56;;;;;;;7.97;1.60;;;6.20;94.30;;;;;;5003571;28;20038;-69
2024/01/25 09:39:22;;;;;;;3.10;1.13;;;6.20;94.30;;;;;;4999876;28;20033;-69
2024/01/25 09:41:47;;;;;;;5.50;1.92;;;6.30;94.40;;;;;;5002134;28;20069;-69
2024/01/25 09:44:13;;;;;;;3.28;0.98;;;6.20;94.30;;;;;;4996789;28;20034;-68
2024/01/25 09:46:41;;;;;;;2.88;1.67;;;6.30;94.50;;;;;;4996360;28;20040;-68
2024/01/25 09:49:07;;;;;;;3.05;1.25;;;6.30;94.50;;;;;;4999928;28;20025;-68
2024/01/25 09:51:38;;;;;;;2.45;1.25;;;6.30;94.40;;;;;;5000716;28;20033;-68
2024/01/25 09:54:05;;;;;;;9.50;1.70;;;6.30;94.30;;;;;;4998275;28;20526;-69
2024/01/25 09:56:33;;;;;;;2.13;0.95;;;6.40;94.30;;;;;;4996727;28;20447;-68
2024/01/25 09:58:58;;;;;;;2.22;0.88;;;6.40;94.20;;;;;;5008580;28;20374;-69
2024/01/25 10:01:24;;;;;;;2.63;0.90;;;6.40;94.10;;;;;;5005309;28;20056;-69
2024/01/25 10:03:50;;;;;;;4.93;2.05;;;6.50;94.20;;;;;;5021855;28;20034;-68
2024/01/25 10:06:16;;;;;;;4.32;1.20;;;6.50;94.00;;;;;;5011143;28;20450;-68
2024/01/25 10:08:42;;;;;;;6.22;1.70;;;6.40;93.80;;;;;;5000927;28;20157;-68
2024/01/25 10:11:08;;;;;;;4.75;1.27;;;6.50;94.00;;;;;;5001450;28;20080;-69
2024/01/25 10:13:45;;;;;;;6.60;1.55;;;6.40;93.80;;;;;;5004517;28;20034;-70
2024/01/25 10:16:14;;;;;;;2.75;1.50;;;6.50;94.00;;;;;;5004627;28;20080;-69
2024/01/25 10:18:42;;;;;;;4.35;1.02;;;6.60;93.90;;;;;;4997289;28;20096;-69
2024/01/25 10:21:09;;;;;;;6.00;1.58;;;6.60;93.60;;;;;;4997586;28;20030;-69
2024/01/25 10:23:35;;;;;;;3.60;1.30;;;6.60;93.40;;;;;;5018469;28;20089;-68
2024/01/25 10:26:01;;;;;;;6.78;1.58;;;6.60;93.10;;;;;;5003161;28;20431;-68
2024/01/25 10:28:28;;;;;;;10.23;1.55;;;6.60;93.20;;;;;;5008411;28;20168;-69
2024/01/25 10:31:01;;;;;;;5.00;1.63;;;6.60;93.20;;;;;;4999870;28;20458;-69
2024/01/25 10:33:27;;;;;;;11.65;1.63;;;6.70;93.00;;;;;;5003773;28;20364;-69
2024/01/25 10:36:01;;;;;;;5.72;1.00;;;6.80;92.80;;;;;;4996466;28;20087;-69
2024/01/25 10:38:35;;;;;;;4.25;0.93;;;6.80;92.50;;;;;;5002930;28;20037;-69
2024/01/25 10:41:02;;;;;;;5.22;1.40;;;6.90;92.70;;;;;;4999446;28;20100;-69
2024/01/25 10:43:31;;;;;;;1.67;0.77;;;6.80;92.30;;;;;;5002629;28;20124;-70
2024/01/25 10:45:58;;;;;;;2.70;0.68;;;6.90;92.50;;;;;;5000860;28;20685;-69
2024/01/25 10:48:25;;;;;;;8.52;1.80;;;6.80;92.10;;;;;;4999188;28;20112;-69
2024/01/25 10:50:55;;;;;;;7.32;1.65;;;6.80;92.60;;;;;;4997397;28;20109;-68
2024/01/25 10:53:23;;;;;;;4.07;1.25;;;6.80;92.60;;;;;;5000855;28;20033;-69
2024/01/25 10:55:49;;;;;;;2.47;0.60;;;6.90;92.60;;;;;;4997116;28;20382;-69
2024/01/25 10:58:16;;;;;;;4.78;0.98;;;6.90;92.60;;;;;;4999718;28;20188;-69
2024/01/25 11:00:41;;;;;;;6.85;0.77;;;6.90;92.20;;;;;;4997380;28;20066;-69
2024/01/25 11:03:07;;;;;;;4.57;1.30;;;6.90;92.10;;;;;;4996310;28;20058;-69
2024/01/25 11:05:33;;;;;;;3.45;1.02;;;6.90;92.40;;;;;;4998057;28;20041;-69
2024/01/25 11:07:59;;;;;;;5.00;1.27;;;6.80;92.30;;;;;;4995906;28;20121;-68
2024/01/25 11:10:27;;;;;;;8.63;1.52;;;6.90;92.10;;;;;;4999214;28;20085;-68
2024/01/25 11:13:00;;;;;;;6.15;1.50;;;6.90;91.90;;;;;;5004733;28;20055;-68
2024/01/25 11:15:36;;;;;;;2.72;1.00;;;6.90;91.80;;;;;;5000136;28;20100;-69
2024/01/25 11:18:03;;;;;;;1.55;0.65;;;6.90;91.80;;;;;;4995850;28;20082;-69
2024/01/25 11:20:30;;;;;;;1.77;0.90;;;6.90;91.90;;;;;;5002730;28;20030;-68
2024/01/25 11:22:56;;;;;;;6.13;1.95;;;6.90;92.00;;;;;;4998577;28;20093;-68
2024/01/25 11:25:22;;;;;;;3.47;0.98;;;6.90;91.50;;;;;;5000252;28;20045;-68
2024/01/25 11:27:51;;;;;;;6.15;1.50;;;6.90;91.70;;;;;;5003488;28;20386;-69
2024/01/25 11:30:19;;;;;;;4.93;1.98;;;6.90;91.60;;;;;;4994819;28;20034;-69
2024/01/25 11:32:45;;;;;;;3.72;1.00;;;6.90;91.50;;;;;;4996658;28;20034;-68
2024/01/25 11:35:13;;;;;;;8.68;1.55;;;6.90;91.80;;;;;;5001177;28;20122;-69
2024/01/25 11:37:39;;;;;;;7.22;1.52;;;7.00;91.40;;;;;;5003821;28;20030;-69
2024/01/25 11:40:05;;;;;;;7.20;1.20;;;7.10;91.20;;;;;;5007395;28;20105;-68
2024/01/25 11:42:31;;;;;;;4.45;1.70;;;7.10;90.70;;;;;;5001423;28;20158;-70
2024/01/25 11:44:56;;;;;;;1.38;0.77;;;7.20;90.80;;;;;;5003673;28;20467;-68
2024/01/25 11:47:22;;;;;;;2.53;1.42;;;7.10;91.00;;;;;;5001726;28;20034;-69
2024/01/25 11:49:47;;;;;;;10.27;1.88;;;7.20;91.00;;;;;;5005833;28;20029;-67
2024/01/25 11:52:14;;;;;;;5.10;1.58;;;7.20;90.70;;;;;;5001543;28;20029;-70
2024/01/25 11:54:40;;;;;;;5.45;1.63;;;7.30;91.10;;;;;;5003950;28;20038;-67
2024/01/25 11:57:06;;;;;;;7.53;1.70;;;7.30;90.80;;;;;;4996427;28;20047;-68
2024/01/25 11:59:31;;;;;;;5.88;1.45;;;7.30;90.50;;;;;;4994200;28;20139;-70
2024/01/25 12:01:57;;;;;;;2.65;0.70;;;7.50;90.10;;;;;;4999338;28;20097;-68
2024/01/25 12:04:24;;;;;;;7.47;1.20;;;7.60;90.30;;;;;;4996302;28;20092;-68
2024/01/25 12:06:50;;;;;;;7.55;1.85;;;7.60;89.50;;;;;;4994605;28;20030;-71
2024/01/25 12:09:16;;;;;;;2.17;0.80;;;7.60;89.60;;;;;;5002976;28;20045;-68
2024/01/25 12:11:42;;;;;;;5.80;1.23;;;7.50;89.20;;;;;;4996163;28;20391;-69
2024/01/25 12:14:09;;;;;;;4.60;1.50;;;7.60;89.10;;;;;;5000243;28;20034;-72
2024/01/25 12:16:35;;;;;;;1.85;1.13;;;7.60;89.30;;;;;;4997322;28;20129;-69
2024/01/25 12:19:00;;;;;;;1.42;0.73;;;7.80;89.50;;;;;;5008368;28;20033;-69
2024/01/25 12:21:26;;;;;;;3.67;1.15;;;8.00;89.10;;;;;;4993946;28;20036;-69
2024/01/25 12:23:51;;;;;;;5.15;1.83;;;8.10;88.20;;;;;;4997537;28;20033;-68
2024/01/25 12:26:17;;;;;;;3.95;1.67;;;8.20;88.20;;;;;;5000319;28;20505;-70
2024/01/25 12:28:42;;;;;;;5.93;1.20;;;8.20;87.40;;;;;;4996306;28;20045;-68
2024/01/25 12:31:08;;;;;;;2.80;0.85;;;8.20;87.00;;;;;;4995630;28;20084;-68
2024/01/25 12:33:35;;;;;;;5.90;1.40;;;8.10;87.10;;;;;;5032017;28;20048;-68
2024/01/25 12:36:02;;;;;;;4.57;1.55;;;8.20;87.10;;;;;;5001943;28;20075;-70
2024/01/25 12:38:29;;;;;;;3.97;1.65;;;8.20;87.50;;;;;;4994424;28;20074;-69
2024/01/25 12:40:55;;;;;;;1.70;0.85;;;8.10;87.80;;;;;;4993676;28;20054;-69
2024/01/25 12:43:23;;;;;;;2.75;1.13;;;8.10;87.30;;;;;;4994379;28;20069;-68
2024/01/25 12:45:49;;;;;;;3.03;1.10;;;8.00;87.20;;;;;;5013359;28;20029;-68
2024/01/25 12:48:15;;;;;;;3.78;0.82;;;8.10;87.50;;;;;;5002930;28;20022;-67